Time;durP1;ratioP1;P1;durP2;ratioP2;P2;SDS_P1;SDS_P2;PMS_P1;PMS_P2;Temp;Humidity;BMP_temperature;BMP_pressure;BME280_temperature;BME280_humidity;BME280_pressure;Samples;Min_cycle;Max_cycle;Signal;HPM_P1;HPM_P2
2023/01/15 00:00:58;;;;;;;6.00;2.20;;;;;;;6.35;73.56;98555.31;104602;1295;22663;-34
2023/01/15 00:03:24;;;;;;;2.80;1.70;;;;;;;6.37;73.51;98548.60;104482;1295;23001;-31
2023/01/15 00:05:50;;;;;;;2.40;1.70;;;;;;;6.35;73.56;98539.14;104603;1295;22785;-34
2023/01/15 00:08:15;;;;;;;4.50;1.90;;;;;;;6.37;73.19;98533.52;104598;1305;22801;-30
2023/01/15 00:10:41;;;;;;;2.70;1.90;;;;;;;6.41;72.76;98531.08;104424;1305;22814;-31
2023/01/15 00:13:06;;;;;;;9.80;3.40;;;;;;;6.39;72.73;98523.80;104496;1291;22579;-34
2023/01/15 00:15:32;;;;;;;2.90;1.60;;;;;;;6.35;73.31;98531.40;104500;1302;22582;-34
2023/01/15 00:17:57;;;;;;;4.70;2.70;;;;;;;6.31;73.31;98520.65;104595;1305;24568;-31
2023/01/15 00:20:23;;;;;;;4.90;2.40;;;;;;;6.36;73.04;98510.98;104599;1301;22812;-32
2023/01/15 00:22:49;;;;;;;4.10;1.50;;;;;;;6.31;73.74;98508.25;104555;1295;22562;-35
2023/01/15 00:27:44;;;;;;;2.50;1.70;;;;;;;6.30;73.90;98482.02;104606;1302;23038;-31
2023/01/15 00:30:12;;;;;;;2.90;1.50;;;;;;;6.24;73.95;98485.96;104367;1294;22521;-34
2023/01/15 00:32:39;;;;;;;3.00;1.70;;;;;;;6.26;73.96;98471.09;104648;1292;24356;-30
2023/01/15 00:35:05;;;;;;;3.70;1.50;;;;;;;6.25;74.19;98474.82;104547;1305;22671;-33
2023/01/15 00:37:30;;;;;;;5.10;2.30;;;;;;;6.29;73.80;98470.59;104582;1294;22624;-33
2023/01/15 00:39:56;;;;;;;6.10;1.70;;;;;;;6.24;73.88;98465.04;104459;1295;24445;-34
2023/01/15 00:42:22;;;;;;;4.00;1.90;;;;;;;6.24;74.05;98460.86;104565;1302;24422;-29
2023/01/15 00:44:47;;;;;;;5.50;2.10;;;;;;;6.21;74.61;98458.24;104475;1305;23058;-29
2023/01/15 00:47:14;;;;;;;4.30;2.90;;;;;;;6.19;74.74;98453.13;104609;1301;24350;-30
2023/01/15 00:49:41;;;;;;;3.70;2.00;;;;;;;6.24;73.90;98443.91;104557;1302;22799;-34
2023/01/15 00:52:06;;;;;;;3.10;1.60;;;;;;;6.27;73.84;98445.05;104367;1305;23037;-34
2023/01/15 00:54:32;;;;;;;5.50;2.10;;;;;;;6.28;73.78;98431.64;104620;1305;22673;-34
2023/01/15 00:56:58;;;;;;;15.40;3.00;;;;;;;6.30;73.55;98436.30;104493;1294;23170;-30
2023/01/15 00:59:24;;;;;;;3.40;2.30;;;;;;;6.31;73.95;98428.55;104479;1294;22581;-30
2023/01/15 01:01:49;;;;;;;11.70;2.50;;;;;;;6.31;73.77;98426.02;104507;1295;22819;-33
2023/01/15 01:04:15;;;;;;;5.20;2.90;;;;;;;6.34;73.38;98413.02;104512;1299;25301;-33
2023/01/15 01:06:41;;;;;;;3.50;1.70;;;;;;;6.34;73.15;98416.80;104472;1295;22590;-33
2023/01/15 01:09:06;;;;;;;6.00;2.10;;;;;;;6.34;73.59;98417.56;104593;1294;22649;-30
2023/01/15 01:11:33;;;;;;;4.00;2.30;;;;;;;6.29;73.86;98407.32;104516;1305;23045;-34
2023/01/15 01:14:00;;;;;;;4.40;2.50;;;;;;;6.27;74.14;98412.92;104458;1305;24436;-30
2023/01/15 01:16:32;;;;;;;5.70;2.30;;;;;;;6.34;74.08;98409.89;104582;1292;25307;-30
2023/01/15 01:18:58;;;;;;;7.30;1.90;;;;;;;6.31;74.09;98401.43;104571;1292;22573;-30
2023/01/15 01:21:25;;;;;;;8.00;1.80;;;;;;;6.20;74.69;98411.80;104549;1305;23048;-34
2023/01/15 01:23:50;;;;;;;4.60;3.70;;;;;;;6.26;74.28;98403.23;104625;1296;22654;-34
2023/01/15 01:26:16;;;;;;;5.90;1.70;;;;;;;6.38;73.93;98406.97;104468;1305;22663;-34
2023/01/15 01:28:42;;;;;;;2.80;2.00;;;;;;;6.23;74.48;98405.91;104714;1295;22677;-30
2023/01/15 01:31:08;;;;;;;2.60;1.80;;;;;;;6.30;74.41;98401.63;104567;1295;22693;-34
2023/01/15 01:33:34;;;;;;;2.20;1.90;;;;;;;6.17;75.19;98401.89;104573;1295;22796;-29
2023/01/15 01:35:59;;;;;;;4.30;1.60;;;;;;;6.18;75.35;98396.31;104477;1305;22814;-30
2023/01/15 01:38:25;;;;;;;5.40;2.70;;;;;;;6.21;75.24;98393.96;104598;1305;22822;-32
2023/01/15 01:40:51;;;;;;;3.60;2.70;;;;;;;6.20;75.73;98394.58;104479;1305;23045;-33
2023/01/15 01:43:20;;;;;;;6.50;3.50;;;;;;;6.12;75.91;98402.70;104523;1295;22622;-34
2023/01/15 01:45:45;;;;;;;2.90;2.00;;;;;;;6.12;76.19;98398.80;104662;1305;22664;-29
2023/01/15 01:48:11;;;;;;;4.50;3.10;;;;;;;6.03;76.86;98382.45;104529;1301;22750;-34
2023/01/15 01:50:36;;;;;;;6.90;2.70;;;;;;;6.06;76.71;98383.30;104576;1302;22669;-33
2023/01/15 01:53:05;;;;;;;3.80;2.90;;;;;;;6.00;77.19;98385.88;104550;1298;22566;-33
2023/01/15 01:55:30;;;;;;;8.20;3.20;;;;;;;5.95;77.88;98390.54;104566;1291;25265;-29
2023/01/15 01:58:15;;;;;;;5.00;3.30;;;;;;;5.91;78.03;98376.02;104444;1295;22650;-29
2023/01/15 02:00:43;;;;;;;18.80;2.80;;;;;;;5.89;78.50;98366.98;104573;1305;24304;-28
2023/01/15 02:03:08;;;;;;;3.70;2.20;;;;;;;5.95;77.92;98366.80;104459;1295;23001;-33
2023/01/15 02:05:39;;;;;;;8.60;3.00;;;;;;;5.90;78.46;98363.80;104527;1305;22663;-29
2023/01/15 02:08:05;;;;;;;6.50;3.20;;;;;;;5.92;78.59;98363.23;104578;1292;23167;-31
2023/01/15 02:10:32;;;;;;;2.90;2.10;;;;;;;5.83;78.97;98363.44;104492;1303;24268;-29
2023/01/15 02:13:07;;;;;;;3.90;2.80;;;;;;;5.82;79.82;98356.13;104597;1295;22673;-33
2023/01/15 02:15:35;;;;;;;5.70;2.50;;;;;;;5.82;79.64;98349.66;104506;1291;25406;-34
2023/01/15 02:18:22;;;;;;;0.80;0.80;;;;;;;5.80;80.01;98344.27;104524;1295;22607;-34
2023/01/15 02:21:07;;;;;;;3.70;2.90;;;;;;;5.80;80.21;98341.98;104569;1292;22565;-35
2023/01/15 02:23:46;;;;;;;4.80;2.30;;;;;;;5.83;80.37;98331.54;104556;1303;23166;-33
2023/01/15 02:26:25;;;;;;;3.50;2.40;;;;;;;5.84;80.04;98329.05;104446;1295;23044;-29
2023/01/15 02:28:52;;;;;;;6.00;3.80;;;;;;;5.85;80.39;98316.96;104523;1305;25460;-33
2023/01/15 02:31:33;;;;;;;5.70;3.70;;;;;;;5.81;80.77;98319.98;104502;1305;23955;-32
2023/01/15 02:34:13;;;;;;;6.80;4.60;;;;;;;5.87;80.69;98313.45;104457;1303;24791;-35
2023/01/15 02:36:41;;;;;;;5.10;2.90;;;;;;;5.86;80.78;98317.46;104634;1296;22818;-30
2023/01/15 02:39:10;;;;;;;7.70;4.00;;;;;;;5.84;80.71;98300.81;104470;1295;22696;-34
2023/01/15 02:41:38;;;;;;;9.50;4.00;;;;;;;5.81;81.19;98310.09;104548;1295;22678;-30
2023/01/15 02:44:04;;;;;;;4.20;3.00;;;;;;;5.85;81.04;98307.83;104510;1305;22685;-34
2023/01/15 02:46:32;;;;;;;8.60;3.40;;;;;;;5.85;81.01;98308.00;104672;1292;22826;-33
2023/01/15 02:48:58;;;;;;;5.20;2.50;;;;;;;5.77;81.73;98288.91;104534;1305;22566;-30
2023/01/15 02:51:26;;;;;;;4.20;2.70;;;;;;;5.76;82.00;98304.67;104544;1305;25384;-34
2023/01/15 02:53:53;;;;;;;5.80;3.00;;;;;;;5.77;81.81;98303.87;104525;1291;22572;-34
2023/01/15 02:56:20;;;;;;;5.60;3.80;;;;;;;5.78;81.79;98296.45;104542;1292;22796;-30
2023/01/15 02:58:46;;;;;;;5.30;3.90;;;;;;;5.78;81.97;98284.57;104648;1295;24300;-30
2023/01/15 03:01:15;;;;;;;7.80;4.00;;;;;;;5.72;82.19;98290.92;104404;1304;23171;-34
2023/01/15 03:03:49;;;;;;;4.20;2.80;;;;;;;5.73;82.50;98275.88;104479;1295;23162;-30
2023/01/15 03:06:24;;;;;;;7.30;3.30;;;;;;;5.71;82.43;98275.83;104527;1305;25638;-34
2023/01/15 03:08:49;;;;;;;4.20;2.20;;;;;;;5.73;82.18;98279.48;104504;1292;22556;-34
2023/01/15 03:11:17;;;;;;;7.00;4.20;;;;;;;5.72;82.42;98271.58;104508;1301;22726;-30
2023/01/15 03:13:51;;;;;;;3.20;2.60;;;;;;;5.77;82.20;98274.48;104618;1295;22820;-34
2023/01/15 03:16:41;;;;;;;6.30;2.80;;;;;;;5.79;82.27;98266.30;104537;1298;24257;-30
2023/01/15 03:19:12;;;;;;;4.40;3.70;;;;;;;5.80;82.33;98268.23;104523;1295;22679;-30
2023/01/15 03:21:50;;;;;;;5.20;3.50;;;;;;;5.80;82.15;98266.35;104578;1295;22944;-39
2023/01/15 03:24:29;;;;;;;4.40;3.10;;;;;;;5.79;82.52;98261.14;104451;1305;22806;-30
2023/01/15 03:26:55;;;;;;;5.50;3.00;;;;;;;5.83;82.54;98255.42;104647;1295;22569;-31
2023/01/15 03:29:22;;;;;;;5.20;3.90;;;;;;;5.84;82.58;98259.73;104450;1295;25430;-30
2023/01/15 03:31:48;;;;;;;4.00;2.90;;;;;;;5.81;82.79;98265.48;104385;1301;22952;-30
2023/01/15 03:34:14;;;;;;;6.10;2.40;;;;;;;5.80;83.11;98265.95;104454;1295;23052;-30
2023/01/15 03:36:40;;;;;;;4.70;3.40;;;;;;;5.84;83.16;98259.48;104531;1295;22677;-30
2023/01/15 03:39:06;;;;;;;4.30;2.90;;;;;;;5.82;83.37;98252.05;104539;1295;22683;-35
2023/01/15 03:42:03;;;;;;;4.30;2.30;;;;;;;5.93;83.00;98242.84;104468;1305;22663;-30
2023/01/15 03:44:52;;;;;;;3.10;2.40;;;;;;;5.97;83.20;98241.98;104490;1295;22941;-34
2023/01/15 03:47:42;;;;;;;7.90;3.80;;;;;;;5.95;83.40;98240.65;104482;1302;24313;-32
2023/01/15 03:50:19;;;;;;;3.70;2.00;;;;;;;5.93;84.46;98239.31;104561;1304;22655;-31
2023/01/15 03:52:51;;;;;;;5.70;2.60;;;;;;;6.01;84.38;98245.29;104597;1291;25368;-30
2023/01/15 03:55:22;;;;;;;3.50;2.20;;;;;;;5.98;84.83;98249.79;104597;1295;22562;-34
2023/01/15 03:58:01;;;;;;;1.80;1.70;;;;;;;6.01;84.88;98250.90;104630;1294;22796;-30
2023/01/15 04:00:31;;;;;;;6.10;3.20;;;;;;;6.05;84.81;98248.17;104515;1295;23172;-30
2023/01/15 04:02:57;;;;;;;3.60;2.10;;;;;;;6.01;85.86;98251.39;104442;1295;22823;-31
2023/01/15 04:05:23;;;;;;;4.90;2.40;;;;;;;6.06;85.94;98247.45;104589;1292;22592;-31
2023/01/15 04:07:48;;;;;;;2.90;2.10;;;;;;;6.10;85.99;98243.48;104423;1305;22575;-30
2023/01/15 04:10:14;;;;;;;3.30;2.40;;;;;;;6.13;86.39;98228.45;104627;1295;23291;-30
2023/01/15 04:12:39;;;;;;;3.60;2.20;;;;;;;-101.17;16.57;19644.90;101607;1292;1002561;-37
2023/01/15 04:15:06;;;;;;;3.80;2.40;;;;;;;-128.00;-1.00;-1.00;100959;1305;1004361;-31
2023/01/15 04:17:31;;;;;;;4.80;2.70;;;;;;;-128.00;-1.00;-1.00;100970;1305;1004704;-33
2023/01/15 04:19:57;;;;;;;2.60;2.00;;;;;;;-128.00;-1.00;-1.00;100951;1305;1004920;-30
2023/01/15 04:22:22;;;;;;;2.70;2.20;;;;;;;-128.00;-1.00;-1.00;100997;1305;1004157;-35
2023/01/15 04:24:48;;;;;;;5.30;2.20;;;;;;;-128.00;-1.00;-1.00;101014;1305;1004591;-30
2023/01/15 04:27:14;;;;;;;2.30;1.80;;;;;;;-128.00;-1.00;-1.00;100941;1305;1004961;-34
2023/01/15 04:29:39;;;;;;;3.90;2.70;;;;;;;-128.00;-1.00;-1.00;101012;1305;1004381;-34
2023/01/15 04:32:05;;;;;;;3.60;1.50;;;;;;;-128.00;-1.00;-1.00;100817;1305;1004387;-30
2023/01/15 04:34:30;;;;;;;3.20;2.30;;;;;;;-128.00;-1.00;-1.00;101025;1305;1004129;-30
2023/01/15 04:36:56;;;;;;;6.30;2.10;;;;;;;-128.00;-1.00;-1.00;100961;1305;1003843;-30
2023/01/15 05:16:45;;;;;;;3.10;1.80;;;;;;;6.27;95.57;98203.48;104284;1305;558757;-34
2023/01/15 05:19:10;;;;;;;3.10;1.70;;;;;;;6.35;93.56;98189.84;104312;1304;214925;-34
2023/01/15 05:21:39;;;;;;;3.30;2.60;;;;;;;6.34;93.42;98188.54;104526;1301;22815;-30
2023/01/15 05:24:07;;;;;;;4.10;2.30;;;;;;;6.37;92.73;98184.34;104526;1294;22862;-30
2023/01/15 05:26:33;;;;;;;1.70;0.80;;;;;;;6.34;92.24;98186.80;104558;1294;22576;-31
2023/01/15 05:28:59;;;;;;;2.80;2.00;;;;;;;6.30;92.17;98175.52;104475;1305;24352;-30
2023/01/15 05:31:25;;;;;;;7.90;2.60;;;;;;;6.32;91.69;98181.17;104566;1287;24547;-36
2023/01/15 05:33:51;;;;;;;5.00;3.10;;;;;;;6.31;91.24;98178.74;104586;1294;22816;-34
2023/01/15 05:36:19;;;;;;;8.10;1.90;;;;;;;6.31;91.52;98176.66;104342;1306;23047;-34
2023/01/15 05:38:45;;;;;;;2.50;2.10;;;;;;;6.25;91.82;98166.91;104617;1294;25243;-32
2023/01/15 05:43:41;;;;;;;5.20;2.60;;;;;;;5.99;94.49;98171.71;104513;1294;22579;-31
2023/01/15 05:46:07;;;;;;;2.50;1.20;;;;;;;5.95;94.47;98163.20;104562;1294;22657;-30
2023/01/15 05:48:32;;;;;;;4.40;2.70;;;;;;;5.91;95.36;98163.73;104530;1295;23043;-30
2023/01/15 05:51:01;;;;;;;3.90;2.50;;;;;;;5.82;96.40;98167.29;104486;1294;24385;-34
2023/01/15 05:53:27;;;;;;;3.60;2.10;;;;;;;5.68;98.31;98169.25;104491;1294;22780;-35
2023/01/15 05:55:53;;;;;;;3.10;1.90;;;;;;;5.56;99.83;98163.02;104551;1306;23156;-37
2023/01/15 05:58:18;;;;;;;10.80;3.10;;;;;;;5.45;100.00;98155.73;104472;1295;23052;-36
2023/01/15 06:00:44;;;;;;;6.10;2.80;;;;;;;5.28;100.00;98160.02;104391;1306;24807;-30
2023/01/15 06:03:10;;;;;;;5.70;3.10;;;;;;;5.20;100.00;98152.48;104403;1295;23166;-35
2023/01/15 06:05:35;;;;;;;5.60;2.70;;;;;;;5.11;100.00;98152.98;104597;1306;23171;-37
2023/01/15 06:08:01;;;;;;;3.90;2.50;;;;;;;5.01;100.00;98151.30;104513;1294;23032;-31
2023/01/15 06:10:27;;;;;;;8.80;3.10;;;;;;;4.91;100.00;98155.55;104440;1298;22959;-30
2023/01/15 06:12:52;;;;;;;8.30;3.30;;;;;;;4.88;100.00;98151.15;104496;1306;23160;-32
2023/01/15 06:15:18;;;;;;;6.20;3.70;;;;;;;-48.27;59.60;58887.26;103056;1305;1002733;-37
2023/01/15 06:17:44;;;;;;;6.10;3.00;;;;;;;-128.00;-1.00;-1.00;100916;1306;1004674;-32
2023/01/15 06:20:10;;;;;;;3.80;2.70;;;;;;;-128.00;-1.00;-1.00;100713;1306;1003644;-33
2023/01/15 06:22:37;;;;;;;7.80;2.90;;;;;;;-128.00;-1.00;-1.00;100887;1306;1004447;-33
2023/01/15 06:25:03;;;;;;;3.50;3.10;;;;;;;-128.00;-1.00;-1.00;100957;1301;1004895;-33
2023/01/15 06:27:29;;;;;;;7.80;3.30;;;;;;;-128.00;-1.00;-1.00;100914;1306;1004641;-32
2023/01/15 06:29:57;;;;;;;5.40;2.70;;;;;;;-128.00;-1.00;-1.00;100905;1306;1003706;-37
2023/01/15 06:32:24;;;;;;;6.10;2.40;;;;;;;-128.00;-1.00;-1.00;100885;1306;1005474;-33
2023/01/15 06:34:50;;;;;;;5.50;3.30;;;;;;;-128.00;-1.00;-1.00;100878;1306;1004482;-34
2023/01/15 06:37:16;;;;;;;19.00;4.00;;;;;;;-128.00;-1.00;-1.00;100916;1306;1005049;-37
2023/01/15 06:39:41;;;;;;;9.10;3.70;;;;;;;-128.00;-1.00;-1.00;100840;1305;1004228;-32
2023/01/15 06:47:19;;;;;;;5.20;4.00;;;;;;;-128.00;-1.00;-1.00;100789;1306;1004750;-34
2023/01/15 06:49:45;;;;;;;4.50;3.80;;;;;;;-128.00;-1.00;-1.00;100890;1306;1004608;-34
2023/01/15 06:52:11;;;;;;;8.80;4.60;;;;;;;-128.00;-1.00;-1.00;100896;1306;1004674;-36
2023/01/15 06:54:37;;;;;;;8.40;4.10;;;;;;;-128.00;-1.00;-1.00;100859;1306;1004615;-36
2023/01/15 06:57:03;;;;;;;7.90;5.00;;;;;;;-128.00;-1.00;-1.00;100930;1306;1004731;-34
2023/01/15 06:59:28;;;;;;;6.70;4.70;;;;;;;-128.00;-1.00;-1.00;100866;1306;1003701;-36
2023/01/15 07:01:54;;;;;;;8.50;4.00;;;;;;;-128.00;-1.00;-1.00;100881;1306;1004418;-34
2023/01/15 07:04:20;;;;;;;12.90;4.60;;;;;;;-128.00;-1.00;-1.00;101004;1306;1004203;-36
2023/01/15 07:06:45;;;;;;;6.80;4.00;;;;;;;-128.00;-1.00;-1.00;100900;1306;1004573;-38
2023/01/15 07:09:11;;;;;;;12.70;5.00;;;;;;;-128.00;-1.00;-1.00;100866;1306;1004218;-37
2023/01/15 07:11:48;;;;;;;4.50;3.50;;;;;;;-128.00;-1.00;-1.00;100878;1306;1004823;-37
2023/01/15 07:14:21;;;;;;;7.40;4.00;;;;;;;-128.00;-1.00;-1.00;100632;1306;1004508;-34
2023/01/15 07:16:47;;;;;;;;;;;;;;;-128.00;-1.00;-1.00;100806;1306;1004764;-34
2023/01/15 07:19:13;;;;;;;5.90;3.70;;;;;;;-128.00;-1.00;-1.00;100896;1306;1004889;-34
2023/01/15 07:21:40;;;;;;;5.60;4.20;;;;;;;-128.00;-1.00;-1.00;100613;1306;1004102;-32
2023/01/15 07:24:05;;;;;;;8.40;5.00;;;;;;;-128.00;-1.00;-1.00;100981;1306;1004952;-33
2023/01/15 07:26:31;;;;;;;7.90;4.60;;;;;;;-128.00;-1.00;-1.00;100944;1306;1004594;-33
2023/01/15 07:28:57;;;;;;;8.40;3.90;;;;;;;-128.00;-1.00;-1.00;100873;1306;1004637;-36
2023/01/15 07:31:22;;;;;;;5.70;4.00;;;;;;;-128.00;-1.00;-1.00;100771;1306;1004569;-36
2023/01/15 07:33:48;;;;;;;7.20;4.40;;;;;;;-128.00;-1.00;-1.00;100907;1306;1004043;-34
2023/01/15 07:36:13;;;;;;;8.10;4.60;;;;;;;-128.00;-1.00;-1.00;100867;1306;1004637;-32
2023/01/15 07:38:39;;;;;;;9.10;4.70;;;;;;;-128.00;-1.00;-1.00;100877;1306;1004536;-38
2023/01/15 07:51:01;;;;;;;8.20;4.30;;;;;;;-128.00;-1.00;-1.00;100893;1306;1004479;-33
2023/01/15 07:53:26;;;;;;;9.00;5.00;;;;;;;-128.00;-1.00;-1.00;100914;1306;1004690;-40
2023/01/15 07:55:52;;;;;;;8.90;3.70;;;;;;;-128.00;-1.00;-1.00;100906;1298;1004561;-37
2023/01/15 07:58:18;;;;;;;5.00;3.20;;;;;;;-128.00;-1.00;-1.00;100901;1306;1004293;-36
2023/01/15 08:00:44;;;;;;;8.40;4.60;;;;;;;-128.00;-1.00;-1.00;100849;1306;1004249;-33
2023/01/15 08:03:09;;;;;;;5.00;3.30;;;;;;;-128.00;-1.00;-1.00;100866;1306;1004440;-32
2023/01/15 08:05:35;;;;;;;6.10;3.10;;;;;;;-128.00;-1.00;-1.00;100938;1306;1004238;-36
2023/01/15 08:08:01;;;;;;;7.50;4.80;;;;;;;-128.00;-1.00;-1.00;100881;1306;1004251;-32
2023/01/15 08:10:27;;;;;;;5.90;3.40;;;;;;;-128.00;-1.00;-1.00;100915;1306;1005305;-33
2023/01/15 08:15:22;;;;;;;7.30;3.80;;;;;;;-128.00;-1.00;-1.00;100925;1306;1005180;-33
2023/01/15 08:17:49;;;;;;;5.80;4.60;;;;;;;-128.00;-1.00;-1.00;100901;1306;1005099;-36
2023/01/15 08:20:16;;;;;;;4.80;3.50;;;;;;;-128.00;-1.00;-1.00;100902;1306;1005160;-35
2023/01/15 08:22:44;;;;;;;15.30;4.20;;;;;;;-128.00;-1.00;-1.00;100952;1306;1004060;-33
2023/01/15 08:25:11;;;;;;;5.20;2.70;;;;;;;-128.00;-1.00;-1.00;100837;1306;1004264;-34
2023/01/15 08:27:37;;;;;;;5.30;3.70;;;;;;;-128.00;-1.00;-1.00;100971;1306;1004043;-34
2023/01/15 08:30:04;;;;;;;8.50;3.60;;;;;;;-128.00;-1.00;-1.00;100843;1306;1005055;-37
2023/01/15 08:32:30;;;;;;;4.80;3.40;;;;;;;-128.00;-1.00;-1.00;100875;1306;1004433;-36
2023/01/15 08:34:56;;;;;;;8.50;3.50;;;;;;;-128.00;-1.00;-1.00;100842;1291;1006468;-37
2023/01/15 08:37:22;;;;;;;5.80;4.30;;;;;;;-128.00;-1.00;-1.00;100830;1306;1004773;-36
2023/01/15 08:39:49;;;;;;;6.10;3.70;;;;;;;-128.00;-1.00;-1.00;100921;1306;1004414;-38
2023/01/15 08:42:15;;;;;;;8.30;3.60;;;;;;;-128.00;-1.00;-1.00;100668;1306;1005076;-34
2023/01/15 08:44:40;;;;;;;8.00;2.60;;;;;;;-128.00;-1.00;-1.00;100945;1306;1004176;-35
2023/01/15 08:47:06;;;;;;;10.90;4.70;;;;;;;-128.00;-1.00;-1.00;100891;1306;1004910;-37
2023/01/15 08:49:32;;;;;;;7.40;3.80;;;;;;;-128.00;-1.00;-1.00;100861;1306;1004805;-36
2023/01/15 08:51:58;;;;;;;5.10;3.20;;;;;;;-128.00;-1.00;-1.00;100931;1306;1004488;-34
2023/01/15 08:54:24;;;;;;;13.20;4.40;;;;;;;-128.00;-1.00;-1.00;100892;1306;1005294;-34
2023/01/15 08:56:50;;;;;;;5.10;3.40;;;;;;;-128.00;-1.00;-1.00;100882;1306;1004557;-37
2023/01/15 08:59:15;;;;;;;18.10;4.70;;;;;;;-128.00;-1.00;-1.00;100889;1306;1004040;-33
2023/01/15 09:01:41;;;;;;;6.30;4.10;;;;;;;-128.00;-1.00;-1.00;100897;1306;1004483;-36
2023/01/15 09:04:08;;;;;;;5.60;3.70;;;;;;;-128.00;-1.00;-1.00;100611;1306;1004386;-33
2023/01/15 09:06:34;;;;;;;9.70;3.80;;;;;;;-128.00;-1.00;-1.00;100826;1306;1004236;-33
2023/01/15 09:09:00;;;;;;;9.20;4.20;;;;;;;-128.00;-1.00;-1.00;100887;1306;1003957;-33
2023/01/15 09:11:27;;;;;;;7.20;5.00;;;;;;;-128.00;-1.00;-1.00;100859;1306;1005142;-33
2023/01/15 09:13:53;;;;;;;5.20;3.50;;;;;;;-128.00;-1.00;-1.00;100901;1306;1004671;-36
2023/01/15 09:16:18;;;;;;;7.40;4.60;;;;;;;-128.00;-1.00;-1.00;100923;1306;1003991;-33
2023/01/15 09:18:45;;;;;;;6.20;3.30;;;;;;;-128.00;-1.00;-1.00;100884;1306;1004314;-36
2023/01/15 09:21:10;;;;;;;3.30;2.50;;;;;;;-128.00;-1.00;-1.00;100838;1306;1005933;-37
2023/01/15 09:23:37;;;;;;;10.80;3.90;;;;;;;-128.00;-1.00;-1.00;100894;1306;1004416;-33
2023/01/15 09:26:05;;;;;;;7.20;4.20;;;;;;;-128.00;-1.00;-1.00;100877;1306;1004946;-36
2023/01/15 09:28:34;;;;;;;8.10;4.50;;;;;;;-128.00;-1.00;-1.00;100886;1306;1004955;-36
2023/01/15 09:31:00;;;;;;;6.90;3.40;;;;;;;-128.00;-1.00;-1.00;100915;1306;1004626;-37
2023/01/15 09:33:25;;;;;;;11.40;2.90;;;;;;;-128.00;-1.00;-1.00;100925;1306;1003794;-32
2023/01/15 09:35:51;;;;;;;5.80;2.40;;;;;;;-128.00;-1.00;-1.00;100853;1306;1004126;-36
2023/01/15 09:38:19;;;;;;;5.50;2.90;;;;;;;-128.00;-1.00;-1.00;100784;1306;1003802;-32
2023/01/15 09:40:50;;;;;;;6.40;3.60;;;;;;;-128.00;-1.00;-1.00;100856;1306;1004541;-32
2023/01/15 09:43:39;;;;;;;4.40;2.50;;;;;;;-128.00;-1.00;-1.00;100931;1306;1005150;-36
2023/01/15 09:46:29;;;;;;;10.60;4.00;;;;;;;-128.00;-1.00;-1.00;100929;1306;1004273;-35
2023/01/15 09:49:16;;;;;;;8.30;3.20;;;;;;;-128.00;-1.00;-1.00;100915;1306;1004538;-37
2023/01/15 09:51:53;;;;;;;8.60;3.60;;;;;;;-128.00;-1.00;-1.00;100951;1306;1005820;-39
2023/01/15 09:54:35;;;;;;;4.00;2.40;;;;;;;-128.00;-1.00;-1.00;100873;1306;1005240;-36
2023/01/15 09:57:00;;;;;;;5.20;3.10;;;;;;;-128.00;-1.00;-1.00;100916;1306;1005449;-36
2023/01/15 09:59:32;;;;;;;2.10;1.10;;;;;;;-128.00;-1.00;-1.00;100857;1306;1004480;-32
2023/01/15 10:01:58;;;;;;;5.50;2.90;;;;;;;-128.00;-1.00;-1.00;100897;1306;1004761;-33
2023/01/15 10:04:37;;;;;;;4.20;2.90;;;;;;;-128.00;-1.00;-1.00;100957;1306;1004180;-33
2023/01/15 10:07:12;;;;;;;4.00;2.70;;;;;;;-128.00;-1.00;-1.00;100900;1306;1003893;-32
2023/01/15 10:09:38;;;;;;;3.20;1.80;;;;;;;-128.00;-1.00;-1.00;100781;1306;1004679;-32
2023/01/15 10:14:47;;;;;;;3.40;1.50;;;;;;;-128.00;-1.00;-1.00;100889;1306;1004847;-32
2023/01/15 10:17:18;;;;;;;4.80;2.60;;;;;;;-128.00;-1.00;-1.00;100895;1306;1004261;-35
2023/01/15 10:19:43;;;;;;;3.90;3.20;;;;;;;-128.00;-1.00;-1.00;100962;1306;1004057;-35
2023/01/15 10:22:25;;;;;;;5.40;3.10;;;;;;;-128.00;-1.00;-1.00;100836;1306;1005114;-32
2023/01/15 10:24:55;;;;;;;5.20;2.50;;;;;;;-128.00;-1.00;-1.00;100856;1306;1004590;-32
2023/01/15 10:27:21;;;;;;;8.90;2.60;;;;;;;-128.00;-1.00;-1.00;100902;1306;1004305;-35
2023/01/15 10:30:00;;;;;;;3.80;2.00;;;;;;;-128.00;-1.00;-1.00;100845;1306;1004492;-31
2023/01/15 10:32:47;;;;;;;3.40;2.20;;;;;;;-128.00;-1.00;-1.00;100849;1301;1003991;-31
2023/01/15 10:35:28;;;;;;;3.90;2.20;;;;;;;-128.00;-1.00;-1.00;100792;1304;1005100;-35
2023/01/15 10:38:13;;;;;;;3.00;1.90;;;;;;;-128.00;-1.00;-1.00;100888;1306;1005167;-35
2023/01/15 10:40:58;;;;;;;4.70;2.70;;;;;;;-128.00;-1.00;-1.00;100945;1303;1003800;-36
2023/01/15 10:43:38;;;;;;;3.80;2.70;;;;;;;-128.00;-1.00;-1.00;100917;1306;1004679;-35
2023/01/15 10:46:13;;;;;;;5.30;2.30;;;;;;;-128.00;-1.00;-1.00;100908;1306;1004384;-35
2023/01/15 10:48:43;;;;;;;6.40;2.50;;;;;;;-128.00;-1.00;-1.00;100938;1306;1005454;-35
2023/01/15 10:51:14;;;;;;;5.10;3.30;;;;;;;-128.00;-1.00;-1.00;100843;1306;1004625;-31
2023/01/15 10:53:46;;;;;;;4.30;2.00;;;;;;;-128.00;-1.00;-1.00;100887;1304;1004331;-31
2023/01/15 10:56:18;;;;;;;3.60;1.70;;;;;;;-128.00;-1.00;-1.00;100924;1306;1004018;-31
2023/01/15 10:58:55;;;;;;;4.30;2.60;;;;;;;-128.00;-1.00;-1.00;100869;1302;1004328;-31
2023/01/15 11:01:22;;;;;;;4.90;3.00;;;;;;;-128.00;-1.00;-1.00;100874;1306;1003909;-34
2023/01/15 11:03:48;;;;;;;5.50;2.90;;;;;;;-128.00;-1.00;-1.00;100866;1306;1004445;-32
2023/01/15 11:51:14;;;;;;;8.50;3.10;;;;;;;5.27;98.31;98013.67;104826;1288;23146;-35
2023/01/15 11:53:45;;;;;;;4.50;2.10;;;;;;;5.28;98.31;98011.02;104747;1303;24262;-32
2023/01/15 11:56:14;;;;;;;14.00;4.40;;;;;;;5.28;97.64;98002.16;104873;1292;23151;-35
2023/01/15 11:58:48;;;;;;;7.00;2.00;;;;;;;5.31;97.41;98000.45;104569;1298;22795;-32
2023/01/15 12:01:25;;;;;;;2.80;1.70;;;;;;;5.35;96.47;97999.45;104749;1292;25322;-30
2023/01/15 12:03:51;;;;;;;3.70;2.10;;;;;;;5.33;96.51;98000.17;104891;1292;23140;-30
2023/01/15 12:06:18;;;;;;;3.30;2.30;;;;;;;5.35;96.06;97989.95;104703;1292;22685;-34
2023/01/15 12:08:50;;;;;;;2.80;1.50;;;;;;;5.40;96.12;97994.48;104689;1303;23084;-34
2023/01/15 12:11:25;;;;;;;4.10;2.60;;;;;;;5.40;95.27;97989.20;104750;1288;22550;-34
2023/01/15 12:13:58;;;;;;;4.20;2.40;;;;;;;5.41;95.34;97998.54;104658;1295;25284;-31
2023/01/15 12:16:40;;;;;;;4.40;2.20;;;;;;;5.41;95.23;97994.33;104847;1292;22562;-34
2023/01/15 12:19:17;;;;;;;8.20;2.90;;;;;;;5.39;96.09;97989.27;104801;1292;22935;-32
2023/01/15 12:21:49;;;;;;;3.80;1.90;;;;;;;5.38;95.73;97983.14;104673;1295;22558;-30
2023/01/15 12:24:37;;;;;;;3.40;2.10;;;;;;;5.44;94.84;97979.22;104717;1283;22601;-30
2023/01/15 12:27:22;;;;;;;4.00;1.80;;;;;;;5.41;95.35;97981.17;104688;1295;22619;-30
2023/01/15 12:29:51;;;;;;;4.50;2.70;;;;;;;5.43;94.99;97973.61;104719;1303;22790;-31
2023/01/15 12:32:22;;;;;;;5.40;2.60;;;;;;;5.41;95.84;97982.20;104918;1288;22678;-31
2023/01/15 12:35:12;;;;;;;6.40;2.70;;;;;;;-21.26;76.20;78379.67;104046;1289;1002839;-31
2023/01/15 12:37:43;;;;;;;3.90;2.60;;;;;;;-128.00;-1.00;-1.00;101271;1303;1004984;-34
2023/01/15 12:40:27;;;;;;;8.90;2.50;;;;;;;-128.00;-1.00;-1.00;101183;1303;1004353;-30
2023/01/15 12:45:25;;;;;;;7.90;1.80;;;;;;;-128.00;-1.00;-1.00;101187;1303;1004487;-34
2023/01/15 12:48:03;;;;;;;3.20;1.80;;;;;;;-128.00;-1.00;-1.00;101049;1303;1003616;-34
2023/01/15 12:50:43;;;;;;;3.30;2.20;;;;;;;-128.00;-1.00;-1.00;101134;1298;1004157;-32
2023/01/15 12:53:30;;;;;;;3.20;1.70;;;;;;;-128.00;-1.00;-1.00;101161;1303;1004741;-32
2023/01/15 12:56:10;;;;;;;4.70;3.20;;;;;;;-128.00;-1.00;-1.00;101310;1303;1005196;-30
2023/01/15 12:58:45;;;;;;;4.80;3.00;;;;;;;-128.00;-1.00;-1.00;101023;1303;1005576;-29
2023/01/15 13:01:25;;;;;;;10.50;3.80;;;;;;;-128.00;-1.00;-1.00;101008;1303;1004693;-33
2023/01/15 13:04:12;;;;;;;5.50;4.10;;;;;;;-128.00;-1.00;-1.00;101040;1303;1004035;-35
2023/01/15 13:06:39;;;;;;;5.00;2.80;;;;;;;-128.00;-1.00;-1.00;101138;1303;1004438;-36
2023/01/15 13:09:13;;;;;;;8.40;2.50;;;;;;;-128.00;-1.00;-1.00;101131;1300;1004256;-30
2023/01/15 13:11:39;;;;;;;8.30;3.20;;;;;;;-128.00;-1.00;-1.00;101268;1303;1004734;-35
2023/01/15 13:14:16;;;;;;;4.60;3.00;;;;;;;-128.00;-1.00;-1.00;101105;1303;1003980;-32
2023/01/15 13:16:51;;;;;;;3.90;2.70;;;;;;;-128.00;-1.00;-1.00;101224;1303;1004541;-30
2023/01/15 13:19:41;;;;;;;5.60;2.70;;;;;;;-128.00;-1.00;-1.00;100983;1303;1004568;-33
2023/01/15 13:22:14;;;;;;;3.90;2.00;;;;;;;-128.00;-1.00;-1.00;101007;1303;1003784;-37
2023/01/15 13:24:55;;;;;;;4.60;1.80;;;;;;;-128.00;-1.00;-1.00;101278;1299;1004335;-31